Time;durP1;ratioP1;P1;durP2;ratioP2;P2;SDS_P1;SDS_P2;PMS_P1;PMS_P2;Temp;Humidity;BMP_temperature;BMP_pressure;BME280_temperature;BME280_humidity;BME280_pressure;Samples;Min_cycle;Max_cycle;Signal;HPM_P1;HPM_P2
2022/07/23 00:01:37;;;;;;;0.00;0.00;;;18.10;99.90;;;;;;5057178;28;20991;-75
2022/07/23 00:04:05;;;;;;;0.00;0.00;;;18.00;99.90;;;;;;5057982;28;20448;-76
2022/07/23 00:06:35;;;;;;;0.00;0.00;;;18.00;99.90;;;;;;5057428;28;20854;-76
2022/07/23 00:09:06;;;;;;;0.00;0.00;;;18.00;99.90;;;;;;5057344;28;20526;-76
2022/07/23 00:11:34;;;;;;;0.00;0.00;;;18.00;99.90;;;;;;5057647;28;20454;-76
2022/07/23 00:14:02;;;;;;;0.00;0.00;;;18.00;99.90;;;;;;5057101;28;20956;-79
2022/07/23 00:16:30;;;;;;;0.00;0.00;;;18.00;99.90;;;;;;5057566;28;20537;-76
2022/07/23 00:19:01;;;;;;;0.00;0.00;;;18.00;99.90;;;;;;5057150;28;20931;-76
2022/07/23 00:21:29;;;;;;;0.00;0.00;;;18.00;99.90;;;;;;5058006;28;20754;-77
2022/07/23 00:23:57;;;;;;;0.00;0.00;;;18.00;99.90;;;;;;5061043;28;20935;-76
2022/07/23 00:26:27;;;;;;;0.00;0.00;;;18.00;99.90;;;;;;5061156;28;20449;-79
2022/07/23 00:28:55;;;;;;;0.00;0.00;;;17.90;99.90;;;;;;5060924;28;20545;-76
2022/07/23 00:31:23;;;;;;;0.00;0.00;;;17.90;99.90;;;;;;5060756;28;20787;-76
2022/07/23 00:33:51;;;;;;;0.00;0.00;;;17.90;99.90;;;;;;5061336;28;20455;-76
2022/07/23 00:36:18;;;;;;;0.00;0.00;;;17.90;99.90;;;;;;5060926;28;20483;-75
2022/07/23 00:38:46;;;;;;;0.00;0.00;;;17.80;99.90;;;;;;5060874;28;20453;-74
2022/07/23 00:41:14;;;;;;;0.00;0.00;;;17.80;99.90;;;;;;5061562;28;20463;-74
2022/07/23 00:43:43;;;;;;;0.00;0.00;;;17.70;99.90;;;;;;5066958;28;20962;-77
2022/07/23 00:46:11;;;;;;;0.00;0.00;;;17.60;99.90;;;;;;5065851;28;20452;-79
2022/07/23 00:48:39;;;;;;;0.00;0.00;;;17.50;99.90;;;;;;5061091;28;21147;-76
2022/07/23 00:51:07;;;;;;;0.00;0.00;;;17.40;99.90;;;;;;5061513;28;20440;-78
2022/07/23 00:53:35;;;;;;;0.00;0.00;;;17.40;99.90;;;;;;5062681;28;20444;-79
2022/07/23 00:56:04;;;;;;;0.00;0.00;;;17.40;99.90;;;;;;5061847;28;20452;-77
2022/07/23 00:58:33;;;;;;;0.00;0.00;;;17.30;99.90;;;;;;5062022;28;20469;-79
2022/07/23 01:01:03;;;;;;;0.00;0.00;;;17.30;99.90;;;;;;5061807;28;20438;-77
2022/07/23 01:03:31;;;;;;;0.00;0.00;;;17.30;99.90;;;;;;5062047;28;20523;-76
2022/07/23 01:06:00;;;;;;;0.00;0.00;;;17.30;99.90;;;;;;5061956;28;20502;-76
2022/07/23 01:08:27;;;;;;;0.00;0.00;;;17.20;99.90;;;;;;5061757;28;20474;-77
2022/07/23 01:10:56;;;;;;;0.00;0.00;;;17.20;99.90;;;;;;5062056;28;20453;-77
2022/07/23 01:13:23;;;;;;;0.00;0.00;;;17.20;99.90;;;;;;5061194;28;20454;-77
2022/07/23 01:15:51;;;;;;;0.00;0.00;;;17.20;99.90;;;;;;5060814;28;20542;-76
2022/07/23 01:18:20;;;;;;;0.00;0.00;;;17.20;99.90;;;;;;5060831;28;20741;-76
2022/07/23 01:20:49;;;;;;;0.00;0.00;;;17.20;99.90;;;;;;5060870;28;21070;-75
2022/07/23 01:23:18;;;;;;;0.00;0.00;;;17.20;99.90;;;;;;5060581;28;20471;-76
2022/07/23 01:25:49;;;;;;;0.00;0.00;;;17.20;99.90;;;;;;5061014;28;20464;-77
2022/07/23 01:28:17;;;;;;;0.00;0.00;;;17.10;99.90;;;;;;5060534;28;20538;-76
2022/07/23 01:30:46;;;;;;;0.00;0.00;;;17.00;99.90;;;;;;5060358;28;20461;-77
2022/07/23 01:33:13;;;;;;;0.00;0.00;;;17.00;99.90;;;;;;5059922;28;20440;-77
2022/07/23 01:35:41;;;;;;;0.00;0.00;;;17.00;99.90;;;;;;5060236;28;20466;-77
2022/07/23 01:38:09;;;;;;;0.00;0.00;;;16.90;99.90;;;;;;5059962;28;20452;-77
2022/07/23 01:40:38;;;;;;;0.00;0.00;;;17.00;99.90;;;;;;5061708;28;20474;-77
2022/07/23 01:43:06;;;;;;;0.00;0.00;;;17.00;99.90;;;;;;5063696;28;20489;-77
2022/07/23 01:45:35;;;;;;;0.00;0.00;;;17.00;99.90;;;;;;5061263;28;20449;-77
2022/07/23 01:48:03;;;;;;;0.00;0.00;;;17.00;99.90;;;;;;5060185;28;20747;-77
2022/07/23 01:50:37;;;;;;;0.00;0.00;;;17.10;99.90;;;;;;5059917;28;20542;-77
2022/07/23 01:53:05;;;;;;;0.00;0.00;;;17.20;99.90;;;;;;5059248;28;20472;-74
2022/07/23 01:55:33;;;;;;;0.00;0.00;;;17.30;99.90;;;;;;5059089;28;20459;-74
2022/07/23 01:58:02;;;;;;;0.00;0.00;;;17.30;99.90;;;;;;5059396;28;20460;-75
2022/07/23 02:00:30;;;;;;;0.00;0.00;;;17.40;99.90;;;;;;5059178;28;20463;-74
2022/07/23 02:02:58;;;;;;;0.00;0.00;;;17.40;99.90;;;;;;5059322;28;20572;-75
2022/07/23 02:05:28;;;;;;;0.00;0.00;;;17.50;99.90;;;;;;5059045;28;20448;-75
2022/07/23 02:07:56;;;;;;;0.00;0.00;;;17.50;99.90;;;;;;5059010;28;20457;-75
2022/07/23 02:10:24;;;;;;;0.00;0.00;;;17.40;99.90;;;;;;5058839;28;20606;-75
2022/07/23 02:12:52;;;;;;;0.00;0.00;;;17.40;99.90;;;;;;5059555;28;20441;-75
2022/07/23 02:15:21;;;;;;;0.00;0.00;;;17.40;99.90;;;;;;5059446;28;20959;-76
2022/07/23 02:21:05;;;;;;;0.00;0.00;;;17.30;99.90;;;;;;5947760;22;20476;-91
2022/07/23 02:23:35;;;;;;;0.00;0.00;;;17.20;99.90;;;;;;4959835;28;20488;-90
2022/07/23 02:26:03;;;;;;;0.00;0.00;;;17.20;99.90;;;;;;4944422;28;20940;-90
2022/07/23 02:28:31;;;;;;;0.00;0.00;;;17.10;99.90;;;;;;4945401;28;20764;-90
2022/07/23 02:31:00;;;;;;;0.00;0.00;;;17.10;99.90;;;;;;4945974;28;20481;-89
2022/07/23 02:33:28;;;;;;;0.00;0.00;;;17.10;99.90;;;;;;4954726;28;20481;-89
2022/07/23 02:35:56;;;;;;;0.00;0.00;;;17.00;99.90;;;;;;4965572;28;20453;-90
2022/07/23 02:38:24;;;;;;;0.00;0.00;;;17.00;99.90;;;;;;4964560;28;20483;-89
2022/07/23 02:40:52;;;;;;;0.00;0.00;;;16.90;99.90;;;;;;4953289;28;20621;-91
2022/07/23 02:43:20;;;;;;;0.00;0.00;;;16.90;99.90;;;;;;4944232;28;20488;-89
2022/07/23 02:45:48;;;;;;;0.00;0.00;;;16.80;99.90;;;;;;4943267;28;20532;-92
2022/07/23 02:48:18;;;;;;;0.00;0.00;;;16.70;99.90;;;;;;4947815;28;20536;-92
2022/07/23 02:50:46;;;;;;;0.00;0.00;;;16.60;99.90;;;;;;4947926;28;20677;-91
2022/07/23 02:53:14;;;;;;;0.00;0.00;;;16.50;99.90;;;;;;4947365;28;20501;-91
2022/07/23 02:55:44;;;;;;;0.00;0.00;;;16.50;99.90;;;;;;4949130;28;20628;-92
2022/07/23 02:58:12;;;;;;;0.00;0.00;;;16.40;99.90;;;;;;4948477;28;20461;-93
2022/07/23 03:00:43;;;;;;;0.00;0.00;;;16.20;99.90;;;;;;4950514;28;20476;-92
2022/07/23 03:03:12;;;;;;;0.00;0.00;;;16.20;99.90;;;;;;4953826;28;20481;-91
2022/07/23 03:05:42;;;;;;;0.00;0.00;;;16.10;99.90;;;;;;4956628;28;20700;-90
2022/07/23 03:08:10;;;;;;;0.00;0.00;;;16.20;99.90;;;;;;4944947;28;20496;-91
2022/07/23 03:10:38;;;;;;;0.00;0.00;;;16.30;99.90;;;;;;4943872;28;20817;-90
2022/07/23 03:13:06;;;;;;;0.00;0.00;;;16.40;99.90;;;;;;4944077;28;20461;-90
2022/07/23 03:15:34;;;;;;;0.00;0.00;;;16.40;99.90;;;;;;4945786;28;20717;-92
2022/07/23 03:18:02;;;;;;;0.00;0.00;;;16.60;99.90;;;;;;4954642;28;20483;-90
2022/07/23 03:20:30;;;;;;;0.00;0.00;;;16.60;99.90;;;;;;4967553;28;20484;-91
2022/07/23 03:23:04;;;;;;;0.00;0.00;;;16.70;99.90;;;;;;4966293;28;20497;-92
2022/07/23 03:25:32;;;;;;;0.00;0.00;;;16.80;99.90;;;;;;4950622;28;20663;-92
2022/07/23 03:28:00;;;;;;;0.00;0.00;;;16.80;99.90;;;;;;4953518;28;20531;-92
2022/07/23 03:30:28;;;;;;;0.00;0.00;;;16.90;99.90;;;;;;4953601;28;20444;-94
2022/07/23 03:32:57;;;;;;;0.00;0.00;;;17.00;99.90;;;;;;4953036;28;20547;-92
2022/07/23 03:35:25;;;;;;;0.00;0.00;;;17.10;99.90;;;;;;4952261;28;20469;-91
2022/07/23 03:37:53;;;;;;;0.00;0.00;;;17.20;99.90;;;;;;4945289;28;20509;-92
2022/07/23 03:43:39;;;;;;;0.00;0.00;;;17.10;99.90;;;;;;4966874;28;20483;-68
2022/07/23 03:46:07;;;;;;;0.00;0.00;;;17.00;99.90;;;;;;4960713;28;20445;-81
2022/07/23 03:48:35;;;;;;;0.00;0.00;;;17.00;99.90;;;;;;4974629;28;20475;-79
2022/07/23 03:51:03;;;;;;;0.00;0.00;;;17.00;99.90;;;;;;4988419;28;20451;-78
2022/07/23 03:53:31;;;;;;;0.00;0.00;;;17.00;99.90;;;;;;4984998;28;20715;-78
2022/07/23 03:56:00;;;;;;;0.00;0.00;;;16.90;99.90;;;;;;4990419;28;20524;-79
2022/07/23 03:58:28;;;;;;;0.00;0.00;;;16.90;99.90;;;;;;4979117;28;20468;-79
2022/07/23 04:00:57;;;;;;;0.00;0.00;;;16.80;99.90;;;;;;4983029;28;20483;-78
2022/07/23 04:03:25;;;;;;;0.00;0.00;;;16.70;99.90;;;;;;4991375;28;20486;-78
2022/07/23 04:05:53;;;;;;;0.00;0.00;;;16.70;99.90;;;;;;4990035;28;20546;-78
2022/07/23 04:08:21;;;;;;;0.00;0.00;;;16.70;99.90;;;;;;4987951;28;20547;-77
2022/07/23 04:10:49;;;;;;;0.00;0.00;;;16.70;99.90;;;;;;4988349;28;20686;-77
2022/07/23 04:13:17;;;;;;;0.00;0.00;;;16.80;99.90;;;;;;4970597;28;20462;-78
2022/07/23 04:15:46;;;;;;;0.00;0.00;;;16.80;99.90;;;;;;4986402;28;20451;-77
2022/07/23 04:18:17;;;;;;;0.00;0.00;;;16.90;99.90;;;;;;4993733;28;20523;-77
2022/07/23 04:20:45;;;;;;;0.00;0.00;;;17.00;99.90;;;;;;4995517;28;20540;-77
2022/07/23 04:23:13;;;;;;;0.00;0.00;;;17.10;99.90;;;;;;4991657;28;20715;-77
2022/07/23 04:25:40;;;;;;;0.00;0.00;;;17.20;99.90;;;;;;4990467;28;20447;-78
2022/07/23 04:28:08;;;;;;;0.00;0.00;;;17.30;99.90;;;;;;4997693;28;20464;-77
2022/07/23 04:30:36;;;;;;;0.00;0.00;;;17.40;99.90;;;;;;4991196;28;20546;-78
2022/07/23 04:33:06;;;;;;;0.00;0.00;;;17.50;99.90;;;;;;4995926;28;20949;-79
2022/07/23 04:35:36;;;;;;;0.00;0.00;;;17.50;99.90;;;;;;4992911;28;20454;-77
2022/07/23 04:38:04;;;;;;;0.00;0.00;;;17.60;99.90;;;;;;4994094;28;20463;-77
2022/07/23 04:40:33;;;;;;;0.00;0.00;;;17.60;99.90;;;;;;4983816;28;20458;-77
2022/07/23 04:43:01;;;;;;;0.00;0.00;;;17.50;99.90;;;;;;4992302;28;20489;-76
2022/07/23 04:45:28;;;;;;;0.00;0.00;;;17.50;99.90;;;;;;4997907;28;20790;-75
2022/07/23 04:47:57;;;;;;;0.00;0.00;;;17.50;99.90;;;;;;5000915;28;20558;-74
2022/07/23 04:50:25;;;;;;;0.00;0.00;;;17.40;99.90;;;;;;5000995;28;20451;-75
2022/07/23 04:52:54;;;;;;;0.00;0.00;;;17.30;99.90;;;;;;5000689;28;20458;-78
2022/07/23 04:55:22;;;;;;;0.00;0.00;;;17.20;99.90;;;;;;5012256;28;20469;-79
2022/07/23 04:57:50;;;;;;;0.00;0.00;;;17.20;99.90;;;;;;5017646;28;20827;-78
2022/07/23 05:00:18;;;;;;;0.00;0.00;;;17.20;99.90;;;;;;5019695;28;20448;-78
2022/07/23 05:02:45;;;;;;;0.00;0.00;;;17.20;99.90;;;;;;5013691;28;20589;-77
2022/07/23 05:05:13;;;;;;;0.00;0.00;;;17.10;99.90;;;;;;5010172;28;20501;-74
2022/07/23 05:07:41;;;;;;;0.00;0.00;;;17.10;99.90;;;;;;5009316;28;20536;-75
2022/07/23 05:10:11;;;;;;;0.00;0.00;;;17.10;99.90;;;;;;5001263;28;20458;-75
2022/07/23 05:12:39;;;;;;;0.00;0.00;;;17.10;99.90;;;;;;5005222;28;20715;-74
2022/07/23 05:15:07;;;;;;;0.00;0.00;;;17.10;99.90;;;;;;5010457;28;20492;-74
2022/07/23 05:17:41;;;;;;;0.00;0.00;;;17.10;99.90;;;;;;5020045;28;20990;-74
2022/07/23 05:20:09;;;;;;;0.00;0.00;;;17.20;99.90;;;;;;5015810;28;21000;-74
2022/07/23 05:22:37;;;;;;;0.00;0.00;;;17.20;99.90;;;;;;5017248;28;20964;-74
2022/07/23 05:25:07;;;;;;;0.00;0.00;;;17.30;99.90;;;;;;5016048;28;20519;-74
2022/07/23 05:27:37;;;;;;;0.00;0.00;;;17.30;99.90;;;;;;5013768;28;20569;-74
2022/07/23 05:30:05;;;;;;;0.00;0.00;;;17.30;99.90;;;;;;5018106;28;20451;-74
2022/07/23 05:32:34;;;;;;;0.00;0.00;;;17.20;99.90;;;;;;5012633;28;20532;-75
2022/07/23 05:35:02;;;;;;;0.00;0.00;;;17.30;99.90;;;;;;5009617;28;20437;-74
2022/07/23 05:37:34;;;;;;;0.00;0.00;;;17.30;99.90;;;;;;5009260;28;20477;-74
2022/07/23 05:40:07;;;;;;;0.00;0.00;;;17.40;99.90;;;;;;5007253;28;20521;-75
2022/07/23 05:42:36;;;;;;;0.00;0.00;;;17.40;99.90;;;;;;5008878;28;20883;-74
2022/07/23 05:45:06;;;;;;;0.00;0.00;;;17.50;99.90;;;;;;5018968;28;20485;-75
2022/07/23 05:47:41;;;;;;;0.00;0.00;;;17.50;99.90;;;;;;5017108;28;20550;-74
2022/07/23 05:50:09;;;;;;;0.00;0.00;;;17.60;99.90;;;;;;5011198;28;20438;-74
2022/07/23 05:52:38;;;;;;;0.00;0.00;;;17.80;99.90;;;;;;5015055;28;20450;-74
2022/07/23 05:55:07;;;;;;;0.00;0.00;;;17.80;99.90;;;;;;5009219;28;20562;-74
2022/07/23 05:57:37;;;;;;;0.00;0.00;;;17.80;99.90;;;;;;5010187;28;20552;-74
2022/07/23 06:00:07;;;;;;;0.00;0.00;;;17.90;99.90;;;;;;5010612;28;20660;-74
2022/07/23 06:02:35;;;;;;;0.00;0.00;;;18.00;99.90;;;;;;5007782;28;20440;-75
2022/07/23 06:05:05;;;;;;;0.00;0.00;;;18.10;99.90;;;;;;5009228;28;20560;-76
2022/07/23 06:07:36;;;;;;;0.00;0.00;;;18.10;99.90;;;;;;5007294;28;20693;-75
2022/07/23 06:10:21;;;;;;;0.00;0.00;;;18.20;99.90;;;;;;5009118;28;20529;-76
2022/07/23 06:12:50;;;;;;;0.00;0.00;;;18.20;99.90;;;;;;5012164;28;20530;-74
2022/07/23 06:15:18;;;;;;;0.00;0.00;;;18.20;99.90;;;;;;5007880;28;20428;-74
2022/07/23 06:17:46;;;;;;;0.00;0.00;;;18.20;99.90;;;;;;5010870;28;20910;-75
2022/07/23 06:20:21;;;;;;;0.00;0.00;;;18.10;99.90;;;;;;5012624;28;20923;-75
2022/07/23 06:22:54;;;;;;;0.00;0.00;;;18.10;99.90;;;;;;5014788;28;20991;-76
2022/07/23 06:25:41;;;;;;;0.00;0.00;;;18.10;99.90;;;;;;5009693;28;20513;-74
2022/07/23 06:28:20;;;;;;;0.00;0.00;;;18.20;99.90;;;;;;5056804;22;20501;-75
2022/07/23 06:30:49;;;;;;;0.00;0.00;;;18.20;99.90;;;;;;5016898;28;20551;-75
2022/07/23 06:33:17;;;;;;;0.00;0.00;;;18.30;99.90;;;;;;5016334;28;20489;-75
2022/07/23 06:35:51;;;;;;;0.00;0.00;;;18.50;99.90;;;;;;5019288;28;20937;-75
2022/07/23 06:38:35;;;;;;;;;;;;;;;;;;;;;
2022/07/23 06:41:04;;;;;;;0.00;0.00;;;18.70;99.90;;;;;;5019094;28;20475;-75
2022/07/23 06:43:44;;;;;;;0.00;0.00;;;18.90;99.90;;;;;;5018811;28;20949;-77
2022/07/23 06:46:20;;;;;;;0.00;0.00;;;19.00;99.90;;;;;;5018263;28;20481;-74
2022/07/23 06:48:54;;;;;;;0.00;0.00;;;19.10;99.90;;;;;;5002562;28;20481;-76
2022/07/23 06:54:15;;;;;;;0.00;0.00;;;19.30;99.90;;;;;;5001444;28;20450;-76
2022/07/23 06:56:49;;;;;;;0.00;0.00;;;19.30;99.90;;;;;;5007127;28;20862;-76
2022/07/23 06:59:24;;;;;;;0.00;0.00;;;19.20;99.90;;;;;;5012700;28;20833;-77
2022/07/23 07:01:52;;;;;;;0.00;0.00;;;19.30;99.90;;;;;;5010547;28;20451;-73
2022/07/23 07:04:22;;;;;;;0.00;0.00;;;19.30;99.90;;;;;;5023352;28;20449;-81
2022/07/23 07:07:00;;;;;;;0.00;0.00;;;19.30;99.90;;;;;;5029914;28;20736;-82
2022/07/23 07:09:36;;;;;;;0.00;0.00;;;19.30;99.90;;;;;;5031234;28;20766;-79
2022/07/23 07:12:08;;;;;;;0.00;0.00;;;19.40;99.90;;;;;;5014734;28;20819;-80
2022/07/23 07:14:38;;;;;;;0.00;0.00;;;19.50;99.90;;;;;;5014971;28;20454;-80
2022/07/23 07:17:28;;;;;;;0.00;0.00;;;19.70;99.90;;;;;;5017156;28;20461;-79
2022/07/23 07:19:56;;;;;;;0.00;0.00;;;19.80;99.90;;;;;;5035973;28;20726;-81
2022/07/23 07:22:24;;;;;;;0.00;0.00;;;19.70;99.90;;;;;;5042740;28;20444;-80
2022/07/23 07:24:52;;;;;;;0.00;0.00;;;19.60;99.90;;;;;;5035927;28;20504;-80
2022/07/23 07:27:23;;;;;;;0.00;0.00;;;19.40;99.90;;;;;;5042239;28;20583;-81
2022/07/23 07:29:52;;;;;;;0.00;0.00;;;19.20;99.90;;;;;;5029799;28;20529;-78
2022/07/23 07:32:21;;;;;;;0.00;0.00;;;19.00;99.90;;;;;;5011340;28;20473;-79
2022/07/23 07:35:10;;;;;;;0.00;0.00;;;18.80;99.90;;;;;;5024030;28;20476;-79
2022/07/23 07:37:38;;;;;;;0.00;0.00;;;18.80;99.90;;;;;;5019504;28;20587;-79
2022/07/23 07:40:07;;;;;;;0.00;0.00;;;18.80;99.90;;;;;;5015778;28;20546;-79
2022/07/23 07:42:35;;;;;;;0.00;0.00;;;18.90;99.90;;;;;;5018518;28;20817;-79
2022/07/23 07:45:05;;;;;;;0.00;0.00;;;18.90;99.90;;;;;;5015926;28;20506;-78
2022/07/23 07:47:33;;;;;;;0.00;0.00;;;19.00;99.90;;;;;;5019232;28;21208;-79
2022/07/23 07:50:01;;;;;;;0.00;0.00;;;19.00;99.90;;;;;;5015472;28;21072;-79
2022/07/23 07:52:30;;;;;;;0.00;0.00;;;19.00;99.90;;;;;;5013426;28;20539;-79
2022/07/23 07:54:58;;;;;;;0.00;0.00;;;18.80;99.90;;;;;;5021885;28;20894;-80
2022/07/23 07:57:26;;;;;;;0.00;0.00;;;18.80;99.90;;;;;;5025019;28;20463;-79
2022/07/23 07:59:59;;;;;;;0.00;0.00;;;18.80;99.90;;;;;;5024314;28;20536;-79
2022/07/23 08:02:50;;;;;;;0.00;0.00;;;18.90;99.90;;;;;;5021966;28;20430;-80
2022/07/23 08:05:20;;;;;;;0.00;0.00;;;18.90;99.90;;;;;;5020482;28;20951;-79
2022/07/23 08:07:55;;;;;;;0.00;0.00;;;19.00;99.90;;;;;;5019993;28;20464;-80
2022/07/23 08:10:23;;;;;;;0.00;0.00;;;19.20;99.90;;;;;;5022709;28;20437;-78
2022/07/23 08:12:54;;;;;;;0.00;0.00;;;19.40;99.90;;;;;;5019892;28;20433;-78
2022/07/23 08:15:24;;;;;;;0.00;0.00;;;19.60;99.90;;;;;;5022498;28;20464;-79
2022/07/23 08:17:54;;;;;;;0.00;0.00;;;19.80;99.90;;;;;;5020241;28;20457;-75
2022/07/23 08:20:24;;;;;;;0.00;0.00;;;19.80;99.90;;;;;;5013637;28;20489;-75
2022/07/23 08:22:55;;;;;;;0.00;0.00;;;19.70;99.90;;;;;;5016236;28;20457;-74
2022/07/23 08:25:26;;;;;;;0.00;0.00;;;19.60;99.90;;;;;;5017600;28;20520;-74
2022/07/23 08:27:54;;;;;;;0.00;0.00;;;19.40;99.90;;;;;;5020088;28;20496;-74
2022/07/23 08:30:22;;;;;;;0.00;0.00;;;19.30;99.90;;;;;;5016616;28;20443;-76
2022/07/23 08:32:53;;;;;;;0.00;0.00;;;19.10;99.90;;;;;;5015464;28;20449;-70
2022/07/23 08:35:28;;;;;;;0.00;0.00;;;19.20;99.90;;;;;;5011437;28;20547;-72
2022/07/23 08:37:56;;;;;;;0.00;0.00;;;19.30;99.90;;;;;;5013545;28;20516;-72
2022/07/23 08:40:26;;;;;;;0.00;0.00;;;19.50;99.90;;;;;;5016605;28;20437;-72
2022/07/23 08:42:54;;;;;;;0.00;0.00;;;19.60;99.90;;;;;;5018336;28;20427;-72
2022/07/23 08:45:25;;;;;;;0.00;0.00;;;19.70;99.90;;;;;;5020465;28;20966;-72
2022/07/23 08:47:56;;;;;;;0.00;0.00;;;19.80;99.90;;;;;;5020267;28;20476;-72
2022/07/23 08:50:25;;;;;;;0.00;0.00;;;20.00;99.90;;;;;;5017808;28;20635;-72
2022/07/23 08:52:54;;;;;;;0.00;0.00;;;20.20;99.90;;;;;;5020355;28;20425;-71
2022/07/23 08:55:23;;;;;;;0.00;0.00;;;20.20;99.90;;;;;;5020243;28;20650;-72
2022/07/23 08:57:53;;;;;;;0.00;0.00;;;20.30;99.90;;;;;;5021033;28;20453;-72
2022/07/23 09:00:23;;;;;;;0.00;0.00;;;20.40;99.90;;;;;;5020928;28;20441;-72
2022/07/23 09:02:51;;;;;;;0.00;0.00;;;20.40;99.90;;;;;;5021144;28;20713;-73
2022/07/23 09:05:21;;;;;;;0.00;0.00;;;20.60;99.90;;;;;;5016788;28;20453;-71
2022/07/23 09:08:10;;;;;;;0.00;0.00;;;20.70;99.90;;;;;;5017430;28;20491;-72
2022/07/23 09:10:45;;;;;;;0.00;0.00;;;20.70;99.90;;;;;;5018569;28;20533;-72
2022/07/23 09:13:32;;;;;;;0.00;0.00;;;20.60;99.90;;;;;;5017718;28;20439;-70
2022/07/23 09:16:02;;;;;;;0.00;0.00;;;20.50;99.90;;;;;;5011794;28;20630;-71
2022/07/23 09:18:39;;;;;;;0.00;0.00;;;20.50;99.90;;;;;;5018177;28;20578;-71
2022/07/23 09:21:13;;;;;;;0.00;0.00;;;20.80;99.90;;;;;;5019693;28;20503;-73
2022/07/23 09:23:43;;;;;;;0.00;0.00;;;20.90;99.90;;;;;;5015744;28;20862;-71
2022/07/23 09:26:19;;;;;;;0.00;0.00;;;21.10;99.90;;;;;;5016851;28;20444;-75
2022/07/23 09:28:55;;;;;;;0.00;0.00;;;21.30;99.90;;;;;;5015891;28;20571;-74
2022/07/23 09:31:24;;;;;;;0.00;0.00;;;21.40;99.90;;;;;;5021077;28;21023;-76
2022/07/23 09:33:52;;;;;;;0.00;0.00;;;21.50;99.90;;;;;;5020327;28;20445;-75
2022/07/23 09:36:30;;;;;;;0.00;0.00;;;21.70;99.90;;;;;;5019921;28;20513;-75
2022/07/23 09:38:58;;;;;;;0.00;0.00;;;21.80;99.90;;;;;;5018655;28;21044;-70
2022/07/23 09:41:34;;;;;;;0.00;0.00;;;21.90;99.90;;;;;;5018530;28;20952;-71
2022/07/23 09:44:08;;;;;;;0.00;0.00;;;21.80;99.90;;;;;;5017176;28;20988;-72
2022/07/23 09:46:36;;;;;;;0.00;0.00;;;21.80;99.90;;;;;;5014235;28;20484;-70
2022/07/23 09:49:15;;;;;;;0.00;0.00;;;21.70;99.90;;;;;;5018666;28;20445;-70
2022/07/23 09:51:51;;;;;;;0.00;0.00;;;21.60;99.90;;;;;;5013219;28;20973;-73
2022/07/23 09:54:29;;;;;;;0.00;0.00;;;21.50;99.90;;;;;;5017648;28;20457;-71
2022/07/23 09:56:58;;;;;;;0.00;0.00;;;21.50;99.90;;;;;;5019551;28;20581;-70
2022/07/23 09:59:30;;;;;;;0.00;0.00;;;21.40;99.90;;;;;;5018686;28;20434;-71
2022/07/23 10:02:00;;;;;;;0.00;0.00;;;21.40;99.90;;;;;;5018593;28;20846;-71
2022/07/23 10:04:29;;;;;;;0.00;0.00;;;21.40;99.90;;;;;;5018847;28;20668;-71
2022/07/23 10:07:00;;;;;;;0.00;0.00;;;21.50;99.90;;;;;;5018976;28;20496;-71
2022/07/23 10:09:30;;;;;;;0.00;0.00;;;21.30;99.90;;;;;;5011608;28;20953;-71
2022/07/23 10:12:04;;;;;;;0.00;0.00;;;21.10;99.90;;;;;;5006237;28;20462;-71
2022/07/23 10:14:34;;;;;;;0.00;0.00;;;21.00;99.90;;;;;;4999822;28;20523;-70
2022/07/23 10:17:02;;;;;;;0.00;0.00;;;20.60;99.90;;;;;;5006533;28;20500;-71
2022/07/23 10:19:31;;;;;;;0.00;0.00;;;20.50;99.90;;;;;;5002602;28;20481;-72
2022/07/23 10:22:03;;;;;;;0.00;0.00;;;20.40;99.90;;;;;;5016854;28;20456;-74
2022/07/23 10:24:47;;;;;;;0.00;0.00;;;20.40;99.90;;;;;;5018924;28;20469;-71
2022/07/23 10:27:36;;;;;;;0.00;0.00;;;20.30;99.90;;;;;;5019283;28;21161;-74
2022/07/23 10:30:07;;;;;;;0.00;0.00;;;20.20;99.90;;;;;;5002849;28;20493;-73
2022/07/23 10:32:45;;;;;;;0.00;0.00;;;20.40;99.90;;;;;;5018301;28;20450;-74
2022/07/23 10:35:22;;;;;;;0.00;0.00;;;20.50;99.90;;;;;;5018466;28;20968;-74
2022/07/23 10:37:55;;;;;;;0.00;0.00;;;20.90;99.90;;;;;;5022088;28;20464;-78
2022/07/23 10:40:24;;;;;;;0.00;0.00;;;21.00;99.90;;;;;;5021206;28;20851;-76
2022/07/23 10:42:54;;;;;;;0.00;0.00;;;21.20;99.90;;;;;;5011708;28;20470;-78
2022/07/23 10:45:31;;;;;;;0.00;0.00;;;21.20;99.90;;;;;;5015849;28;20476;-77
2022/07/23 10:48:18;;;;;;;0.00;0.00;;;21.00;99.90;;;;;;5024201;28;20566;-79
2022/07/23 10:51:10;;;;;;;0.00;0.00;;;20.90;99.90;;;;;;5034322;28;20445;-79
2022/07/23 10:53:59;;;;;;;0.00;0.00;;;20.90;99.90;;;;;;5022561;28;20858;-78
2022/07/23 10:56:50;;;;;;;0.00;0.00;;;20.90;99.90;;;;;;5028896;28;20454;-78
2022/07/23 10:59:19;;;;;;;0.00;0.00;;;20.80;99.90;;;;;;5025646;28;20472;-78
2022/07/23 11:01:47;;;;;;;0.00;0.00;;;20.80;99.90;;;;;;5034136;28;20573;-78
2022/07/23 11:04:16;;;;;;;0.00;0.00;;;20.90;99.90;;;;;;5026530;28;20445;-80
2022/07/23 11:07:11;;;;;;;0.00;0.00;;;21.00;99.90;;;;;;5018505;28;20460;-78
2022/07/23 11:09:42;;;;;;;0.00;0.00;;;21.00;99.90;;;;;;5015923;28;20815;-80
2022/07/23 11:12:32;;;;;;;0.00;0.00;;;21.00;99.90;;;;;;5011461;28;20648;-80
2022/07/23 11:15:01;;;;;;;0.00;0.00;;;21.00;99.90;;;;;;5014482;28;20528;-80
2022/07/23 11:17:31;;;;;;;0.00;0.00;;;20.90;99.90;;;;;;5020753;28;20630;-79
2022/07/23 11:20:19;;;;;;;0.00;0.00;;;20.70;99.90;;;;;;5018190;28;20861;-79
2022/07/23 11:22:52;;;;;;;0.00;0.00;;;20.60;99.90;;;;;;5009354;28;20803;-79
2022/07/23 11:25:36;;;;;;;0.00;0.00;;;20.70;99.90;;;;;;5017102;28;20432;-80
2022/07/23 11:28:11;;;;;;;0.00;0.00;;;20.70;99.90;;;;;;5017453;28;20483;-80
2022/07/23 11:30:42;;;;;;;0.00;0.00;;;20.80;99.90;;;;;;5017610;28;20445;-80
2022/07/23 11:33:21;;;;;;;0.00;0.00;;;20.90;99.90;;;;;;5017609;28;21084;-79
2022/07/23 11:36:01;;;;;;;0.00;0.00;;;21.00;99.90;;;;;;5017571;28;20520;-80
2022/07/23 11:38:30;;;;;;;0.00;0.00;;;21.10;99.90;;;;;;5017464;28;20561;-79
2022/07/23 11:41:00;;;;;;;0.00;0.00;;;21.20;99.90;;;;;;5018155;28;20430;-79
2022/07/23 11:43:28;;;;;;;0.00;0.00;;;21.30;99.90;;;;;;5018263;28;21049;-79
2022/07/23 11:46:00;;;;;;;0.00;0.00;;;21.40;99.90;;;;;;5017592;28;21019;-80
2022/07/23 11:48:29;;;;;;;0.00;0.00;;;21.50;99.90;;;;;;5017990;28;20484;-79
2022/07/23 11:50:58;;;;;;;0.00;0.00;;;21.60;99.90;;;;;;5017403;28;20473;-79
2022/07/23 11:53:28;;;;;;;0.00;0.00;;;21.70;99.90;;;;;;5018072;28;20662;-79
2022/07/23 11:56:05;;;;;;;0.00;0.00;;;21.80;99.90;;;;;;5017802;28;20859;-79
2022/07/23 11:58:34;;;;;;;0.00;0.00;;;21.90;99.90;;;;;;5018019;28;20592;-79
2022/07/23 12:01:01;;;;;;;0.00;0.00;;;21.90;99.90;;;;;;5017527;28;20445;-78
2022/07/23 12:03:31;;;;;;;0.00;0.00;;;21.90;99.90;;;;;;5019217;28;20465;-81
2022/07/23 12:06:00;;;;;;;0.00;0.00;;;21.90;99.90;;;;;;5021710;28;20500;-80
2022/07/23 12:08:29;;;;;;;0.00;0.00;;;22.00;99.90;;;;;;5021123;28;20754;-81
2022/07/23 12:10:57;;;;;;;0.00;0.00;;;22.00;99.90;;;;;;5025866;28;20600;-78
2022/07/23 12:13:26;;;;;;;0.00;0.00;;;22.00;99.90;;;;;;5022409;28;20877;-81
2022/07/23 12:15:58;;;;;;;0.00;0.00;;;21.90;99.90;;;;;;5019144;28;20450;-78
2022/07/23 12:18:27;;;;;;;0.00;0.00;;;21.90;99.90;;;;;;5021994;28;20720;-78
2022/07/23 12:20:58;;;;;;;0.00;0.00;;;21.70;99.90;;;;;;5022731;28;20452;-79
2022/07/23 12:23:27;;;;;;;0.00;0.00;;;21.70;99.90;;;;;;5024906;28;20438;-79
2022/07/23 12:25:55;;;;;;;0.00;0.00;;;21.80;99.90;;;;;;5024213;28;20942;-79
2022/07/23 12:28:30;;;;;;;0.00;0.00;;;22.00;99.90;;;;;;5023740;28;20819;-78
2022/07/23 12:30:59;;;;;;;0.00;0.00;;;22.20;99.90;;;;;;5023460;28;20481;-80
2022/07/23 12:33:29;;;;;;;0.00;0.00;;;22.20;99.90;;;;;;5022486;28;20961;-80
2022/07/23 12:35:59;;;;;;;0.00;0.00;;;22.20;99.90;;;;;;5024937;28;20884;-80
2022/07/23 12:38:36;;;;;;;0.00;0.00;;;22.20;99.90;;;;;;5022084;28;20458;-79
2022/07/23 12:41:04;;;;;;;0.00;0.00;;;22.20;99.90;;;;;;5021761;28;20449;-79
2022/07/23 12:43:38;;;;;;;0.00;0.00;;;22.20;99.90;;;;;;5022539;28;20818;-79
2022/07/23 12:46:07;;;;;;;0.00;0.00;;;22.20;99.90;;;;;;5021376;28;20965;-80
2022/07/23 12:48:37;;;;;;;0.00;0.00;;;22.20;99.90;;;;;;5021338;28;20490;-78
2022/07/23 12:51:06;;;;;;;0.00;0.00;;;22.30;99.90;;;;;;5021070;28;20434;-79
2022/07/23 12:53:39;;;;;;;0.00;0.00;;;22.40;99.90;;;;;;5021802;28;21027;-79
2022/07/23 12:56:10;;;;;;;0.00;0.00;;;22.40;99.90;;;;;;5023360;28;20558;-81
2022/07/23 12:58:45;;;;;;;0.00;0.00;;;22.30;99.90;;;;;;5022999;28;20759;-79
2022/07/23 13:01:26;;;;;;;0.00;0.00;;;22.30;99.90;;;;;;5021423;28;20843;-81
2022/07/23 13:04:03;;;;;;;0.00;0.00;;;22.20;99.90;;;;;;5020999;28;20539;-79
2022/07/23 13:06:42;;;;;;;0.00;0.00;;;22.00;99.90;;;;;;5021044;28;20696;-79
2022/07/23 13:09:13;;;;;;;0.00;0.00;;;22.10;99.90;;;;;;5021018;28;20474;-79
2022/07/23 13:11:43;;;;;;;0.00;0.00;;;22.10;99.90;;;;;;5020913;28;20846;-79
2022/07/23 13:14:13;;;;;;;0.00;0.00;;;22.10;99.90;;;;;;5020845;28;20490;-79
2022/07/23 13:16:42;;;;;;;0.00;0.00;;;22.10;99.90;;;;;;5020415;28;20530;-79